バンダラナイケ国際空港の過去48時間の天気

バンダラナイケ国際空港 (Katunayake)

現在時刻: 10/20 15:13 +0530 (10/20 09:43 UTC) 以下の時間は現地時間です。

過去48時間のMETAR気象情報
時間 風向 風速(m/s) 視程 気温(℃) 湿度(%) 気圧(hPa) 天気現象
20 14:40 西 4 10km以上 29 70 1010
20 13:40 南西 4 10km以上 28 74 1010
20 12:40 西南西 4 10km以上 28 74 1011
20 11:40 西南西 4 10km以上 28 79 1013
20 10:40 南西 3 10km以上 28 79 1013
20 09:40 南西 2 10km以上 28 79 1014
20 08:40 不定 1 10km以上 27 79 1013
20 07:40 東南東 2 10km以上 25 89 1013
20 06:40 2 9000m 23 94 1012
20 05:40 不定 1 9000m 24 89 1011
20 04:40 2 9000m 24 89 1010
20 03:40 東南東 3 9000m 24 94 1011
20 02:40 南南東 2 9000m 24 94 1011
20 01:40 東南東 2 9000m 24 94 1011
19 22:40 4 9000m 25 89 1013 弱い雷雨
19 21:40 不定 2 8000m 28 79 1013 弱い雷雨
19 20:40 西南西 2 10km以上 29 70 1012
19 19:40 西 2 10km以上 28 74 1011 周辺で雷
19 18:40 西南西 3 10km以上 28 74 1010 周辺で雷
19 17:40 西 3 10km以上 29 74 1009
19 16:40 西 4 10km以上 29 74 1008
19 15:40 西 4 10km以上 30 66 1008
19 14:40 西南西 4 10km以上 30 66 1008
19 13:40 西 4 10km以上 30 66 1009
19 12:40 西 3 10km以上 30 66 1010
19 11:40 西 3 10km以上 30 66 1011
19 10:40 西 3 10km以上 29 66 1012
19 09:40 西 3 10km以上 29 70 1013
19 08:40 不定 1 10km以上 30 70 1012
19 07:40 東南東 2 9000m 26 89 1012
19 06:40 東南東 2 9000m 25 89 1011
19 05:40 不定 1 8000m 25 89 1011
19 04:40 不定 1 8000m 24 94 1010
19 03:40 2 9000m 24 94 1010
19 02:40 不定 1 9000m 24 94 1010
VCBI 200910Z 26008KT 220V290 9999 SCT017 FEW020CB 29/23 Q1010 NOSIG RMK E/SE
VCBI 200810Z 23008KT 9999 TS FEW013 SCT017 FEW020CB 28/23 Q1010 NOSIG RMK NW/N/NE/SE/S
VCBI 200710Z 25007KT 220V280 9999 TS FEW013 SCT016 SCT020CB 28/23 Q1011 NOSIG RMK NW/N/NE/E/SE/S
VCBI 200610Z 24007KT 210V280 9999 FEW013 SCT017 FEW020CB 28/24 Q1013 REDZ NOSIG RMK NE/E/SE/S
VCBI 200510Z 23005KT 200V300 9999 SCT016 SCT020CB 28/24 Q1013 NOSIG RMK N/NE/E/SE/S/SW
VCBI 200410Z 22003KT 160V320 9999 SCT017 FEW019TCU 28/24 Q1014 NOSIG RMK NW/N/NE/E/SE/S/SW
VCBI 200310Z VRB02KT 9999 FEW017 FEW020CB SCT040 27/23 Q1013 NOSIG RMK SE/SW/W
VCBI 200210Z 12004KT 9999 FEW017 FEW020TCU 25/23 Q1013 NOSIG RMK SE
VCBI 200110Z 08003KT 9000 SCT017 FEW020TCU 23/22 Q1012 NOSIG RMK SE
VCBI 200010Z VRB02KT 9000 SCT017 FEW020CB 24/22 Q1011 NOSIG RMK SE/W/NW
VCBI 192310Z 08004KT 020V130 9000 TS SCT017 FEW020CB 24/22 Q1010 NOSIG RMK N/NE/S/W/NW
VCBI 192210Z 11006KT 9000 TS SCT017 FEW020CB 24/23 Q1011 NOSIG RMK N/SE/S/W/NW
VCBI 192110Z 16004KT 110V210 9000 TS SCT017 FEW020CB 24/23 Q1011 NOSIG RMK SE/S/W/NW
VCBI 192010Z 12004KT 050V180 9000 TS SCT016 FEW020CB 24/23 Q1011 NOSIG RMK N/NE/SE/S/W/NW
VCBI 191710Z 09008KT 9000 -TSRA SCT017 SCT020CB 25/23 Q1013 NOSIG RMK NW/N/NE/E/SE/S/SW
VCBI 191610Z VRB03KT 8000 -TSRA BKN017 SCT020CB 28/24 Q1013 NOSIG RMK NW/N/NE/E/SE/S/SW
VCBI 191510Z 25003KT 9999 TS SCT017 FEW020CB 29/23 Q1012 NOSIG RMK N/NE/E/SE/S
VCBI 191410Z 26003KT 140V310 9999 VCTS SCT017 FEW020CB 28/23 Q1011 NOSIG RMK N/NE/E/SE/S
VCBI 191310Z 24005KT 200V280 9999 VCTS FEW014 SCT016 FEW020CB 28/23 Q1010 NOSIG RMK N/NE/E/SE/S
VCBI 191210Z 26005KT 220V300 9999 FEW013 SCT016 FEW020CB 29/24 Q1009 NOSIG RMK N/NE/E/SE
VCBI 191110Z 26008KT 220V300 9999 FEW013 SCT016 FEW020CB 29/24 Q1008 NOSIG RMK S
VCBI 191010Z 27008KT 230V290 9999 FEW018 30/23 Q1008 NOSIG
VCBI 190910Z 25007KT 210V300 9999 FEW018 FEW020CB 30/23 Q1008 NOSIG RMK NE/E
VCBI 190810Z 27007KT 230V310 9999 FEW018 FEW020CB 30/23 Q1009 NOSIG RMK S/SE
VCBI 190710Z 27006KT 230V320 CAVOK 30/23 Q1010 NOSIG RMK S
VCBI 190610Z 26006KT 200V310 9999 FEW018 30/23 Q1011 NOSIG
VCBI 190510Z 27006KT 210V300 9999 FEW017 29/22 Q1012 NOSIG
VCBI 190410Z 27005KT 220V320 9999 FEW016 FEW020TCU 29/23 Q1013 NOSIG RMK SE/SW/NE
VCBI 190310Z VRB02KT 9999 FEW018 30/24 Q1012 NOSIG
VCBI 190210Z 11003KT 070V150 9000 FEW018 26/24 Q1012 NOSIG
VCBI 190110Z 11003KT 9000 FEW016 FEW020CB 25/23 Q1011 NOSIG RMK NW
VCBI 190010Z VRB02KT 8000 FEW012 SCT017 25/23 Q1011 NOSIG
VCBI 182310Z VRB02KT 8000 BKN017 24/23 Q1010 NOSIG
VCBI 182210Z 18004KT 9000 FEW017 24/23 Q1010 NOSIG
VCBI 182110Z VRB02KT 9000 FEW016 24/23 Q1010 NOSIG